Terminal Aerodrome Forecast
Issued by NWS

Home | Current Version | Previous Version | Text Only | Print | Product List | Glossary On
Versions: 1 2 3 4 5 6 7 8 9 10 11 12 13 14 15 16 17
000
FTUS41 KPBZ 232335
TAFBVI
TAF
KBVI 232335Z 2400/2424 12005KT P6SM SCT150 BKN250
     FM240600 11003KT P6SM VCSH BKN050
     FM241400 12006KT P6SM BKN025
     FM242300 12010KT P6SM -SHRA OVC015
      AMD NOT SKED 2402/2412=

USA.gov is the U.S. government's official web portal to all federal, state and local government web resources and services.